createdAt,value
2018-10-12T00:00:22.005Z,18.23
2018-10-12T00:03:03.386Z,18.50
2018-10-12T00:05:34.914Z,17.50
2018-10-12T00:08:07.684Z,18.00
2018-10-12T00:10:39.684Z,17.93
2018-10-12T00:13:15.303Z,18.03
2018-10-12T00:15:48.655Z,18.13
2018-10-12T00:18:20.945Z,18.03
2018-10-12T00:20:52.536Z,17.77
2018-10-12T00:23:24.639Z,18.70
2018-10-12T00:25:56.738Z,17.80
2018-10-12T00:28:27.954Z,18.33
2018-10-12T00:30:59.202Z,17.93
2018-10-12T00:33:33.082Z,18.70
2018-10-12T00:36:05.062Z,18.07
2018-10-12T00:38:37.231Z,18.43
2018-10-12T00:41:09.298Z,18.77
2018-10-12T00:43:40.485Z,18.60
2018-10-12T00:46:12.324Z,18.83
2018-10-12T00:48:44.319Z,17.93
2018-10-12T00:51:15.548Z,17.63
2018-10-12T00:53:47.161Z,18.40
2018-10-12T00:56:19.376Z,18.23
2018-10-12T00:58:51.429Z,18.73
2018-10-12T01:01:22.764Z,18.30
2018-10-12T01:03:53.904Z,18.00
2018-10-12T01:06:26.097Z,18.07
2018-10-12T01:08:58.517Z,17.97
2018-10-12T01:11:30.351Z,18.40
2018-10-12T01:14:03.346Z,18.97
2018-10-12T01:16:43.471Z,17.50
2018-10-12T01:19:14.922Z,17.87
2018-10-12T01:21:46.510Z,17.23
2018-10-12T01:24:17.678Z,17.97
2018-10-12T01:26:50.077Z,17.27
2018-10-12T01:29:21.461Z,18.20
2018-10-12T01:31:53.747Z,18.00
2018-10-12T01:34:25.052Z,17.27
2018-10-12T01:36:56.546Z,17.83
2018-10-12T01:39:28.813Z,18.87
2018-10-12T01:42:00.317Z,18.07
2018-10-12T01:44:32.668Z,18.90
2018-10-12T01:47:05.685Z,19.60
2018-10-12T01:49:37.321Z,19.10
2018-10-12T01:52:09.563Z,19.40
2018-10-12T01:54:44.202Z,19.50
2018-10-12T01:57:15.639Z,19.23
2018-10-12T01:59:47.925Z,18.80
2018-10-12T02:02:19.629Z,19.47
2018-10-12T02:04:50.921Z,19.93
2018-10-12T02:07:28.810Z,19.07
2018-10-12T02:10:01.944Z,17.57
2018-10-12T02:12:33.480Z,17.63
2018-10-12T02:15:06.433Z,16.63
2018-10-12T02:17:38.224Z,18.30
2018-10-12T02:20:10.944Z,18.27
2018-10-12T02:22:42.322Z,17.90
2018-10-12T02:25:14.653Z,17.30
2018-10-12T02:27:46.603Z,17.20
2018-10-12T02:30:17.842Z,18.17
2018-10-12T02:32:49.574Z,17.53
2018-10-12T02:35:21.887Z,17.20
2018-10-12T02:37:53.438Z,18.40
2018-10-12T02:40:24.845Z,18.63
2018-10-12T02:42:57.152Z,17.33
2018-10-12T02:45:28.304Z,17.30
2018-10-12T02:48:00.225Z,18.00
2018-10-12T02:50:31.762Z,17.70
2018-10-12T02:53:06.581Z,18.27
2018-10-12T02:55:37.829Z,17.70
2018-10-12T02:58:09.845Z,17.93
2018-10-12T03:00:41.304Z,17.87
2018-10-12T03:03:12.594Z,18.80
2018-10-12T03:05:44.748Z,18.00
2018-10-12T03:08:16.073Z,17.43
2018-10-12T03:10:48.750Z,17.97
2018-10-12T03:13:20.300Z,18.60
2018-10-12T03:15:52.074Z,18.60
2018-10-12T03:18:23.330Z,17.27
2018-10-12T03:20:55.845Z,18.70
2018-10-12T03:23:28.053Z,17.43
2018-10-12T03:26:01.163Z,17.73
2018-10-12T03:28:35.664Z,18.60
2018-10-12T03:31:11.066Z,17.60
2018-10-12T03:33:45.282Z,17.77
2018-10-12T03:36:16.690Z,18.60
2018-10-12T03:38:48.776Z,17.17
2018-10-12T03:41:19.983Z,16.30
2018-10-12T03:43:54.837Z,18.27
2018-10-12T03:46:26.207Z,18.00
2018-10-12T03:48:59.657Z,17.03
2018-10-12T03:51:30.991Z,17.87
2018-10-12T03:54:02.511Z,17.07
2018-10-12T03:56:33.684Z,16.30
2018-10-12T03:59:05.089Z,16.87
2018-10-12T04:01:36.927Z,16.73
2018-10-12T04:04:08.219Z,17.30
2018-10-12T04:06:39.431Z,17.53
2018-10-12T04:09:11.858Z,14.53
2018-10-12T04:11:43.398Z,15.97
2018-10-12T04:14:14.633Z,17.43
2018-10-12T04:16:45.812Z,15.60
2018-10-12T04:19:18.541Z,17.43
2018-10-12T04:21:50.700Z,16.73
2018-10-12T04:24:22.021Z,15.03
2018-10-12T04:27:01.424Z,16.20
2018-10-12T04:29:32.687Z,16.40
2018-10-12T04:32:03.005Z,16.73
2018-10-12T04:34:33.286Z,17.13
2018-10-12T04:37:04.069Z,16.43
2018-10-12T04:39:52.349Z,17.00
2018-10-12T04:42:23.057Z,16.87
2018-10-12T04:45:00.986Z,17.37
2018-10-12T04:47:32.489Z,16.70
2018-10-12T04:50:03.318Z,17.90
2018-10-12T04:52:34.144Z,17.30
2018-10-12T04:55:04.730Z,18.80
2018-10-12T04:57:36.393Z,17.63
2018-10-12T05:00:07.547Z,18.13
2018-10-12T05:02:38.143Z,18.00
2018-10-12T05:05:09.761Z,18.40
2018-10-12T05:07:40.559Z,17.17
2018-10-12T05:10:11.106Z,17.60
2018-10-12T05:12:43.128Z,18.80
2018-10-12T05:15:13.538Z,17.53
2018-10-12T05:17:43.750Z,18.40
2018-10-12T05:20:15.608Z,17.67
2018-10-12T05:22:46.334Z,18.00
2018-10-12T05:25:17.185Z,17.87
2018-10-12T05:27:47.468Z,17.00
2018-10-12T05:30:20.007Z,18.43
2018-10-12T05:32:51.053Z,17.63
2018-10-12T05:35:23.040Z,18.10
2018-10-12T05:37:53.267Z,17.93
2018-10-12T05:40:25.382Z,17.93
2018-10-12T05:42:55.635Z,14.47
2018-10-12T05:45:30.075Z,17.03
2018-10-12T05:49:15.341Z,15.70
2018-10-12T05:51:45.772Z,16.27
2018-10-12T05:54:16.344Z,18.03
2018-10-12T05:56:47.233Z,17.00
2018-10-12T05:59:17.690Z,16.37
2018-10-12T06:01:47.821Z,16.80
2018-10-12T06:04:17.994Z,18.33
2018-10-12T06:06:48.404Z,15.37
2018-10-12T06:09:18.606Z,17.33
2018-10-12T06:11:48.720Z,16.30
2018-10-12T06:14:20.357Z,17.47
2018-10-12T06:16:51.586Z,18.10
2018-10-12T06:19:22.862Z,18.20
2018-10-12T06:21:52.980Z,17.50
2018-10-12T06:24:23.972Z,16.93
2018-10-12T06:26:55.713Z,17.97
2018-10-12T06:29:28.500Z,18.30
2018-10-12T06:31:58.729Z,17.07
2018-10-12T06:34:29.006Z,17.33
2018-10-12T06:37:00.226Z,18.57
2018-10-12T06:39:30.434Z,18.60
2018-10-12T06:42:00.531Z,17.47
2018-10-12T06:44:31.758Z,17.00
2018-10-12T06:47:01.888Z,18.10
2018-10-12T06:49:33.483Z,17.70
2018-10-12T06:52:03.654Z,17.30
2018-10-12T06:54:33.799Z,16.73
2018-10-12T06:57:05.240Z,18.57
2018-10-12T06:59:35.872Z,16.87
2018-10-12T07:02:06.171Z,18.33
2018-10-12T07:04:36.864Z,17.73
2018-10-12T07:07:07.048Z,17.33
2018-10-12T07:09:37.200Z,16.83
2018-10-12T07:12:07.359Z,16.70
2018-10-12T07:14:37.849Z,17.60
2018-10-12T07:17:08.236Z,16.40
2018-10-12T07:19:38.393Z,17.37
2018-10-12T07:22:08.571Z,15.20
2018-10-12T07:24:38.660Z,16.80
2018-10-12T07:27:08.938Z,16.57
2018-10-12T07:29:39.100Z,17.30
2018-10-12T07:32:09.351Z,16.40
2018-10-12T07:34:39.619Z,16.03
2018-10-12T07:37:09.808Z,16.57
2018-10-12T07:39:39.893Z,16.67
2018-10-12T07:42:10.537Z,17.27
2018-10-12T07:44:40.597Z,16.00
2018-10-12T07:47:10.841Z,16.60
2018-10-12T07:49:41.009Z,16.13
2018-10-12T07:52:11.148Z,15.90
2018-10-12T07:54:41.287Z,15.33
2018-10-12T07:57:12.313Z,15.60
2018-10-12T07:59:43.568Z,15.70
2018-10-12T08:02:14.564Z,16.23
2018-10-12T08:04:44.692Z,15.37
2018-10-12T08:07:14.819Z,14.90
2018-10-12T08:09:44.973Z,15.03
2018-10-12T08:12:15.088Z,16.03
2018-10-12T08:14:45.254Z,13.93
2018-10-12T08:17:15.432Z,15.13
2018-10-12T08:19:45.721Z,14.50
2018-10-12T08:22:15.960Z,13.80
2018-10-12T08:24:46.075Z,14.73
2018-10-12T08:27:16.263Z,13.80
2018-10-12T08:29:47.713Z,14.43
2018-10-12T08:32:18.032Z,14.50
2018-10-12T08:34:48.153Z,14.67
2018-10-12T08:37:18.311Z,15.10
2018-10-12T08:39:48.516Z,14.87
2018-10-12T08:42:19.015Z,14.33
2018-10-12T08:44:49.104Z,14.30
2018-10-12T08:47:19.400Z,14.33
2018-10-12T08:49:49.560Z,14.67
2018-10-12T08:52:19.960Z,13.63
2018-10-12T08:54:50.227Z,14.67
2018-10-12T08:57:20.463Z,13.73
2018-10-12T08:59:50.624Z,14.90
2018-10-12T09:02:20.815Z,14.37
2018-10-12T09:04:51.104Z,14.00
2018-10-12T09:07:21.444Z,13.40
2018-10-12T09:09:51.667Z,13.83
2018-10-12T09:12:21.825Z,13.13
2018-10-12T09:14:53.214Z,12.80
2018-10-12T09:17:23.941Z,12.37
2018-10-12T09:19:56.654Z,13.03
2018-10-12T09:22:26.789Z,13.43
2018-10-12T09:24:56.917Z,12.53
2018-10-12T09:27:27.068Z,14.03
2018-10-12T09:29:57.580Z,13.27
2018-10-12T09:32:27.725Z,13.17
2018-10-12T09:34:58.066Z,13.33
2018-10-12T09:37:28.203Z,13.57
2018-10-12T09:39:59.460Z,13.23
2018-10-12T09:42:29.585Z,13.60
2018-10-12T09:44:59.719Z,12.67
2018-10-12T09:47:29.822Z,12.93
2018-10-12T09:49:59.908Z,12.07
2018-10-12T09:52:30.013Z,12.80
2018-10-12T09:55:00.117Z,10.37
2018-10-12T09:57:35.137Z,8.70
2018-10-12T10:00:09.726Z,8.97
2018-10-12T10:02:48.836Z,9.40
2018-10-12T10:05:19.340Z,8.03
2018-10-12T10:07:49.600Z,6.97
2018-10-12T10:10:19.677Z,6.67
2018-10-12T10:12:49.791Z,5.93
2018-10-12T10:15:19.969Z,6.10
2018-10-12T10:17:50.048Z,6.23
2018-10-12T10:20:20.194Z,5.73
2018-10-12T10:22:50.364Z,5.73
2018-10-12T10:25:20.525Z,5.70
2018-10-12T10:27:50.696Z,5.47
2018-10-12T10:30:21.008Z,5.40
2018-10-12T10:32:51.129Z,4.77
2018-10-12T10:35:21.205Z,5.03
2018-10-12T10:37:51.368Z,4.50
2018-10-12T10:40:21.513Z,4.57
2018-10-12T10:42:51.603Z,4.63
2018-10-12T10:45:21.760Z,4.60
2018-10-12T10:47:52.281Z,4.17
2018-10-12T10:50:22.431Z,4.50
2018-10-12T10:52:52.551Z,4.30
2018-10-12T10:55:22.641Z,4.90
2018-10-12T10:57:52.780Z,4.30
2018-10-12T11:00:23.109Z,4.00
2018-10-12T11:02:53.200Z,4.13
2018-10-12T11:05:23.323Z,4.37
2018-10-12T11:07:53.463Z,4.27
2018-10-12T11:10:23.749Z,4.37
2018-10-12T11:12:54.035Z,5.13
2018-10-12T11:15:24.589Z,3.87
2018-10-12T11:17:54.668Z,4.03
2018-10-12T11:20:24.741Z,4.40
2018-10-12T11:22:54.926Z,3.80
2018-10-12T11:25:25.097Z,4.10
2018-10-12T11:27:55.367Z,3.47
2018-10-12T11:30:25.700Z,3.83
2018-10-12T11:32:55.951Z,3.70
2018-10-12T11:35:26.063Z,3.60
2018-10-12T11:37:58.045Z,4.00
2018-10-12T11:40:29.878Z,3.93
2018-10-12T11:43:16.818Z,3.30
2018-10-12T11:45:53.314Z,3.90
2018-10-12T11:48:23.921Z,3.90
2018-10-12T11:50:55.578Z,3.57
2018-10-12T11:53:27.477Z,3.90
2018-10-12T11:55:58.829Z,3.73
2018-10-12T11:58:30.693Z,3.27
2018-10-12T12:01:01.418Z,3.40
2018-10-12T12:03:32.791Z,3.80
2018-10-12T12:06:04.915Z,5.00
2018-10-12T12:08:35.378Z,3.93
2018-10-12T12:11:05.588Z,3.10
2018-10-12T12:13:40.574Z,3.50
2018-10-12T12:16:11.683Z,3.00
2018-10-12T12:18:42.929Z,3.10
2018-10-12T12:21:13.089Z,3.40
2018-10-12T12:23:43.284Z,3.00
2018-10-12T12:26:18.288Z,3.00
2018-10-12T12:28:50.088Z,3.10
2018-10-12T12:31:21.891Z,2.80
2018-10-12T12:33:52.611Z,2.60
2018-10-12T12:36:24.250Z,2.37
2018-10-12T12:38:56.736Z,2.47
2018-10-12T12:41:26.943Z,2.60
2018-10-12T12:43:57.382Z,2.43
2018-10-12T12:46:29.795Z,2.80
2018-10-12T12:49:01.621Z,2.73
2018-10-12T12:51:31.633Z,3.00
2018-10-12T12:54:02.014Z,2.83
2018-10-12T12:56:33.120Z,2.60
2018-10-12T12:59:04.007Z,2.47
2018-10-12T13:01:34.531Z,2.73
2018-10-12T13:04:05.077Z,2.80
2018-10-12T13:06:36.180Z,2.50
2018-10-12T13:09:10.116Z,2.33
2018-10-12T13:11:40.621Z,2.30
2018-10-12T13:14:11.969Z,2.23
2018-10-12T13:16:43.235Z,1.85
2018-10-12T13:19:14.380Z,1.92
2018-10-12T13:21:46.034Z,1.92
2018-10-12T13:24:16.784Z,1.80
2018-10-12T13:26:49.451Z,1.90
2018-10-12T13:29:19.845Z,12.88
2018-10-12T13:31:50.087Z,158.87
2018-10-12T13:34:20.832Z,329.13
2018-10-12T13:36:54.977Z,349.25
2018-10-12T13:39:27.126Z,135.55
2018-10-12T13:41:57.350Z,268.97
2018-10-12T13:44:27.839Z,316.48
2018-10-12T13:46:59.187Z,353.30
2018-10-12T13:49:29.468Z,375.93
2018-10-12T13:52:00.590Z,296.63
2018-10-12T13:54:31.057Z,311.52
2018-10-12T13:57:02.724Z,40.73
2018-10-12T13:59:33.724Z,4.92
2018-10-12T14:02:03.951Z,5.00
2018-10-12T14:04:35.742Z,3.72
2018-10-12T14:07:06.009Z,3.25
2018-10-12T14:09:37.086Z,2.67
2018-10-12T14:12:08.664Z,3.20
2018-10-12T14:14:41.206Z,3.08
2018-10-12T14:17:13.567Z,2.80
2018-10-12T14:19:44.059Z,2.90
2018-10-12T14:22:14.344Z,2.75
2018-10-12T14:24:45.098Z,3.00
2018-10-12T14:27:15.255Z,5.40
2018-10-12T14:29:46.758Z,3.87
2018-10-12T14:32:16.910Z,3.35
2018-10-12T14:34:47.247Z,2.77
2018-10-12T14:37:27.014Z,6.80
2018-10-12T14:39:59.305Z,3.20
2018-10-12T14:42:30.229Z,2.87
2018-10-12T14:45:02.083Z,3.50
2018-10-12T14:47:34.568Z,3.03
2018-10-12T14:50:04.856Z,56.73
2018-10-12T14:52:35.867Z,64.95
2018-10-12T14:55:06.653Z,194.67
2018-10-12T14:57:38.210Z,185.30
2018-10-12T15:00:10.753Z,193.50
2018-10-12T15:02:41.483Z,202.13
2018-10-12T15:05:13.153Z,207.25
2018-10-12T15:07:43.379Z,209.27
2018-10-12T15:10:14.286Z,190.18
2018-10-12T15:12:44.841Z,191.73
2018-10-12T15:15:24.602Z,233.15
2018-10-12T15:17:55.879Z,246.57
2018-10-12T15:20:27.253Z,310.68
2018-10-12T15:22:57.935Z,247.98
2018-10-12T15:25:30.003Z,244.65
2018-10-12T15:28:05.070Z,241.70
2018-10-12T15:30:35.436Z,237.90
2018-10-12T15:33:06.116Z,247.65
2018-10-12T15:35:36.415Z,238.85
2018-10-12T15:38:08.322Z,239.42
2018-10-12T15:40:39.046Z,248.97
2018-10-12T15:43:10.127Z,260.73
2018-10-12T15:45:41.006Z,233.90
2018-10-12T15:48:11.200Z,230.15
2018-10-12T15:50:42.150Z,224.67
2018-10-12T15:53:13.162Z,201.57
2018-10-12T15:55:43.498Z,213.67
2018-10-12T15:58:14.868Z,157.70
2018-10-12T16:00:45.970Z,131.83
2018-10-12T16:03:17.094Z,131.33
2018-10-12T16:05:48.779Z,136.00
2018-10-12T16:08:19.606Z,91.63
2018-10-12T16:10:50.196Z,91.77
2018-10-12T16:13:21.468Z,84.20
2018-10-12T16:15:52.049Z,40.00
2018-10-12T16:18:22.541Z,31.13
2018-10-12T16:20:53.883Z,36.73
2018-10-12T16:23:24.982Z,27.03
2018-10-12T16:26:18.844Z,29.40
2018-10-12T16:28:50.206Z,22.37
2018-10-12T16:31:20.353Z,19.33
2018-10-12T16:33:50.901Z,21.87
2018-10-12T16:36:21.255Z,22.67
2018-10-12T16:38:51.999Z,17.77
2018-10-12T16:41:22.958Z,16.63
2018-10-12T16:43:54.204Z,15.37
2018-10-12T16:46:25.038Z,13.97
2018-10-12T16:48:56.076Z,15.57
2018-10-12T16:51:26.272Z,14.43
2018-10-12T16:53:56.478Z,29.00
2018-10-12T16:56:26.684Z,15.30
2018-10-12T16:58:57.738Z,13.17
2018-10-12T17:01:28.124Z,42.67
2018-10-12T17:03:59.012Z,42.43
2018-10-12T17:06:29.352Z,58.43
2018-10-12T17:08:59.762Z,116.63
2018-10-12T17:11:30.011Z,28.13
2018-10-12T17:14:01.546Z,35.90
2018-10-12T17:16:31.751Z,32.83
2018-10-12T17:19:02.173Z,57.90
2018-10-12T17:21:32.382Z,30.70
2018-10-12T17:24:03.057Z,43.73
2018-10-12T17:26:34.827Z,83.93
2018-10-12T17:29:04.994Z,31.77
2018-10-12T17:31:36.181Z,20.03
2018-10-12T17:34:07.013Z,95.23
2018-10-12T17:37:01.655Z,68.50
2018-10-12T17:39:32.159Z,26.00
2018-10-12T17:42:15.246Z,31.80
2018-10-12T17:44:45.965Z,27.87
2018-10-12T17:47:17.287Z,50.17
2018-10-12T17:49:47.787Z,26.03
2018-10-12T17:52:18.281Z,48.57
2018-10-12T17:54:48.823Z,46.70
2018-10-12T17:57:19.562Z,24.63
2018-10-12T17:59:50.164Z,10.37
2018-10-12T18:02:20.745Z,33.77
2018-10-12T18:04:51.262Z,14.73
2018-10-12T18:07:21.865Z,27.53
2018-10-12T18:09:52.376Z,23.30
2018-10-12T18:12:22.993Z,31.27
2018-10-12T18:14:53.510Z,10.13
2018-10-12T18:17:24.109Z,9.10
2018-10-12T18:19:54.618Z,15.00
2018-10-12T18:22:25.259Z,11.83
2018-10-12T18:24:55.853Z,19.10
2018-10-12T18:27:26.675Z,14.30
2018-10-12T18:29:56.863Z,23.97
2018-10-12T18:32:27.560Z,8.97
2018-10-12T18:34:59.197Z,6.13
2018-10-12T18:37:31.381Z,6.90
2018-10-12T18:40:01.980Z,6.77
2018-10-12T18:42:33.255Z,6.17
2018-10-12T18:45:03.758Z,6.40
2018-10-12T18:47:34.319Z,5.70
2018-10-12T18:50:04.930Z,6.50
2018-10-12T18:52:35.843Z,5.73
2018-10-12T18:55:06.429Z,5.90
2018-10-12T18:57:37.051Z,5.70
2018-10-12T19:00:09.469Z,5.67
2018-10-12T19:02:40.531Z,5.27
2018-10-12T19:05:11.371Z,5.83
2018-10-12T19:07:42.090Z,5.60
2018-10-12T19:10:13.898Z,5.40
2018-10-12T19:12:46.632Z,5.50
2018-10-12T19:15:17.369Z,5.83
2018-10-12T19:17:48.046Z,6.30
2018-10-12T19:20:18.615Z,6.00
2018-10-12T19:22:49.137Z,5.60
2018-10-12T19:25:20.418Z,5.77
2018-10-12T19:27:50.991Z,5.43
2018-10-12T19:30:21.569Z,5.60
2018-10-12T19:32:52.253Z,5.70
2018-10-12T19:35:22.990Z,6.47
2018-10-12T19:37:53.622Z,6.10
2018-10-12T19:40:24.203Z,6.97
2018-10-12T19:42:54.783Z,6.17
2018-10-12T19:45:25.321Z,6.90
2018-10-12T19:47:56.092Z,7.73
2018-10-12T19:50:30.998Z,7.90
2018-10-12T19:53:01.618Z,8.00
2018-10-12T19:55:32.062Z,7.23
2018-10-12T19:58:02.574Z,6.93
2018-10-12T20:00:33.259Z,6.50
2018-10-12T20:03:03.737Z,6.53
2018-10-12T20:05:34.406Z,7.10
2018-10-12T20:08:05.201Z,6.07
2018-10-12T20:10:35.951Z,6.17
2018-10-12T20:13:06.575Z,7.07
2018-10-12T20:15:37.458Z,5.97
2018-10-12T20:18:08.210Z,7.13
2018-10-12T20:20:39.746Z,8.00
2018-10-12T20:23:10.336Z,9.93
2018-10-12T20:25:40.905Z,6.77
2018-10-12T20:28:11.587Z,7.10
2018-10-12T20:30:42.229Z,6.87
2018-10-12T20:33:12.908Z,6.90
2018-10-12T20:35:43.556Z,6.37
2018-10-12T20:38:14.280Z,6.53
2018-10-12T20:40:44.841Z,6.27
2018-10-12T20:43:15.829Z,5.93
2018-10-12T20:45:46.488Z,8.00
2018-10-12T20:48:17.013Z,6.13
2018-10-12T20:50:47.651Z,6.67
2018-10-12T20:53:18.081Z,5.53
2018-10-12T20:55:48.774Z,6.07
2018-10-12T20:58:19.335Z,5.80
2018-10-12T21:00:51.157Z,6.63
2018-10-12T21:03:23.258Z,6.63
2018-10-12T21:05:56.155Z,6.40
2018-10-12T21:08:30.974Z,7.20
2018-10-12T21:11:02.690Z,5.97
2018-10-12T21:13:35.066Z,6.40
2018-10-12T21:16:07.427Z,6.73
2018-10-12T21:18:39.527Z,7.40
2018-10-12T21:21:11.859Z,7.20
2018-10-12T21:23:43.344Z,7.27
2018-10-12T21:26:15.690Z,6.57
2018-10-12T21:28:47.459Z,6.87
2018-10-12T21:31:19.740Z,6.60
2018-10-12T21:33:51.516Z,7.33
2018-10-12T21:36:23.434Z,7.70
2018-10-12T21:38:55.033Z,7.90
2018-10-12T21:41:26.753Z,7.13
2018-10-12T21:43:58.333Z,6.87
2018-10-12T21:46:30.850Z,7.10
2018-10-12T21:49:02.750Z,6.93
2018-10-12T21:51:35.575Z,11.87
2018-10-12T21:54:07.264Z,9.27
2018-10-12T21:56:38.866Z,9.90
2018-10-12T21:59:10.637Z,7.63
2018-10-12T22:01:42.336Z,7.40
2018-10-12T22:04:14.259Z,7.40
2018-10-12T22:06:45.855Z,6.97
2018-10-12T22:09:17.478Z,7.50
2018-10-12T22:11:49.509Z,7.13
2018-10-12T22:14:21.414Z,7.90
2018-10-12T22:16:53.353Z,7.77
2018-10-12T22:19:25.052Z,7.93
2018-10-12T22:21:57.747Z,6.43
2018-10-12T22:24:29.476Z,6.77
2018-10-12T22:27:01.079Z,7.00
2018-10-12T22:29:33.036Z,6.50
2018-10-12T22:32:05.227Z,7.13
2018-10-12T22:34:36.864Z,6.83
2018-10-12T22:37:08.991Z,7.20
2018-10-12T22:39:43.135Z,7.20
2018-10-12T22:42:15.800Z,6.87
2018-10-12T22:44:47.514Z,6.70
2018-10-12T22:47:22.670Z,7.13
2018-10-12T22:49:59.587Z,7.07
2018-10-12T22:52:34.457Z,6.70
2018-10-12T22:55:10.992Z,6.90
2018-10-12T22:57:44.853Z,7.13
2018-10-12T23:00:26.608Z,6.90
2018-10-12T23:03:00.535Z,7.37
2018-10-12T23:05:34.871Z,6.97
2018-10-12T23:08:10.941Z,6.73
2018-10-12T23:10:43.629Z,7.00
2018-10-12T23:13:15.682Z,7.43
2018-10-12T23:15:47.645Z,7.23
2018-10-12T23:18:19.537Z,7.10
2018-10-12T23:20:51.964Z,7.27
2018-10-12T23:23:23.847Z,7.47
2018-10-12T23:25:55.483Z,7.73
2018-10-12T23:28:26.150Z,7.33
2018-10-12T23:30:58.026Z,7.93
2018-10-12T23:33:45.605Z,7.40
2018-10-12T23:36:17.443Z,7.07
2018-10-12T23:38:49.077Z,7.17
2018-10-12T23:41:20.614Z,7.60
2018-10-12T23:43:52.178Z,7.50
2018-10-12T23:46:24.114Z,7.70
2018-10-12T23:48:55.732Z,7.30
2018-10-12T23:51:27.684Z,7.53
2018-10-12T23:53:59.399Z,7.73
2018-10-12T23:56:31.055Z,7.30
2018-10-12T23:59:02.762Z,7.53
